Syracuse, NE

8:50 AM CDT on September 23, 2014 (GMT -0500)
Kosiba Home | Change Station
CLOSE
Current Station
Personal Weather Station
Location: Syracuse, NE
Elevation: 1119 ft
Nearby Weather Stations

Elev 1119 ft 40.63 °N, 96.22 °W | Updated 10 minutes ago

Mostly Cloudy
Mostly Cloudy
59.4 °F
Feels Like 59.4 °F
N
2.2
Wind Variable Wind from SSE

Today
High -- | Low -- °F
--% Chance of Precip.
Yesterday
High -- | Low -- °F
Precip. -- in
7:13 AM 7:20 PM
Waning Crescent, 0% visible
Pressure 30.18 in
Visibility 10.0 miles
Clouds Mostly Cloudy 11000 ft
Dew Point 51 °F
Humidity 74%
Rainfall 0.00 in
Snow Depth Not available.
UV 0 out of 12
Pollen 4.00 out of 12
Air Quality Not available.
Flu Activity Not available.
METAR KPMV 231335Z AUTO 15007KT 10SM BKN110 15/11 A3018 RMK AO2 T01470112

More Conditions Fewer Conditions

Pressure 30.18 in
Visibility 10.0 miles
Clouds Mostly Cloudy 11000 ft
Dew Point 51 °F
Humidity 74%
Rainfall 0.00 in
Snow Depth Not available.
UV 0 out of 12
Pollen 4.00 out of 12
Air Quality Not available.
Flu Activity Not available.
METAR KPMV 231335Z AUTO 15007KT 10SM BKN110 15/11 A3018 RMK AO2 T01470112

More Conditions Fewer Conditions

10-Day Weather Forecast

Almanac

Astronomy

Sep. 23, 2014 Rise Set
Actual Time 7:13 AM CDT 7:20 PM CDT
Civil Twilight 6:46 AM CDT 7:47 PM CDT
Nautical Twilight 6:14 AM CDT 8:19 PM CDT
Astronomical Twilight 5:41 AM CDT 8:51 PM CDT
Moon 6:38 AM CDT 6:59 PM CDT
Length of Visible Light 13h 01m
Length of Day
12h 06m
Tomorrow will be 2m 40s shorter.
Waning Crescent, 0% of the Moon is Illuminated
Today
Waning Crescent
Sep 24
New
Oct 1
First Quarter
Oct 8
Full
Oct 15
Last Quarter

Today's Extremes

State Highs State Lows

Community

WunderPhotos

Upload Photos

1,755,669 photos uploaded!

WunderBlogs® & News

Nearby

Snow Depth

Station Depth Elevation
No new snow has been reported.

Earthquake Activity

City Distance Mag. Time & Date
No recent earthquake activity has been reported nearby.
Minimum magnitude displayed is 2.5.

Coastal Water Temperatures

Place Temperature
No Stations Reporting

Nearby Weather Stations